sensor_id;sensor_type;location;lat;lon;timestamp;temperature;humidity
6964;DHT22;3522;50.856;7.278;2022-12-29T00:01:19;10.90;99.90
6964;DHT22;3522;50.856;7.278;2022-12-29T00:03:45;10.90;99.90
6964;DHT22;3522;50.856;7.278;2022-12-29T00:06:13;10.90;99.90
6964;DHT22;3522;50.856;7.278;2022-12-29T00:08:40;10.90;99.90
6964;DHT22;3522;50.856;7.278;2022-12-29T00:11:07;11.00;99.90
6964;DHT22;3522;50.856;7.278;2022-12-29T00:13:34;11.00;99.90
6964;DHT22;3522;50.856;7.278;2022-12-29T00:16:18;10.90;99.90
6964;DHT22;3522;50.856;7.278;2022-12-29T00:18:45;11.00;99.90
6964;DHT22;3522;50.856;7.278;2022-12-29T00:21:14;11.10;99.90
6964;DHT22;3522;50.856;7.278;2022-12-29T00:23:58;11.00;99.90
6964;DHT22;3522;50.856;7.278;2022-12-29T00:26:47;11.00;99.90
6964;DHT22;3522;50.856;7.278;2022-12-29T00:29:32;11.00;99.90
6964;DHT22;3522;50.856;7.278;2022-12-29T00:32:16;11.00;99.90
6964;DHT22;3522;50.856;7.278;2022-12-29T00:35:00;11.10;99.90
6964;DHT22;3522;50.856;7.278;2022-12-29T00:37:37;11.10;99.90
6964;DHT22;3522;50.856;7.278;2022-12-29T00:40:22;11.10;99.90
6964;DHT22;3522;50.856;7.278;2022-12-29T00:43:06;11.10;99.90
6964;DHT22;3522;50.856;7.278;2022-12-29T00:45:50;11.00;99.90
6964;DHT22;3522;50.856;7.278;2022-12-29T00:48:17;11.00;99.90
6964;DHT22;3522;50.856;7.278;2022-12-29T00:51:04;11.00;99.90
6964;DHT22;3522;50.856;7.278;2022-12-29T00:53:31;11.10;99.90
6964;DHT22;3522;50.856;7.278;2022-12-29T00:55:59;11.10;99.90
6964;DHT22;3522;50.856;7.278;2022-12-29T00:58:26;11.10;99.90
6964;DHT22;3522;50.856;7.278;2022-12-29T01:01:00;11.10;99.90
6964;DHT22;3522;50.856;7.278;2022-12-29T01:03:26;11.10;99.90
6964;DHT22;3522;50.856;7.278;2022-12-29T01:05:53;11.10;99.90
6964;DHT22;3522;50.856;7.278;2022-12-29T01:08:19;11.20;99.90
6964;DHT22;3522;50.856;7.278;2022-12-29T01:10:47;11.10;99.90
6964;DHT22;3522;50.856;7.278;2022-12-29T01:13:22;11.20;99.90
6964;DHT22;3522;50.856;7.278;2022-12-29T01:15:49;11.20;99.90
6964;DHT22;3522;50.856;7.278;2022-12-29T01:18:16;11.20;99.90
6964;DHT22;3522;50.856;7.278;2022-12-29T01:20:42;11.10;99.90
6964;DHT22;3522;50.856;7.278;2022-12-29T01:23:09;11.10;99.90
6964;DHT22;3522;50.856;7.278;2022-12-29T01:25:36;11.10;99.90
6964;DHT22;3522;50.856;7.278;2022-12-29T01:28:03;11.10;99.90
6964;DHT22;3522;50.856;7.278;2022-12-29T01:30:30;11.00;99.90
6964;DHT22;3522;50.856;7.278;2022-12-29T01:32:57;11.00;99.90
6964;DHT22;3522;50.856;7.278;2022-12-29T01:35:23;11.00;99.90
6964;DHT22;3522;50.856;7.278;2022-12-29T01:37:50;11.10;99.90
6964;DHT22;3522;50.856;7.278;2022-12-29T01:40:17;11.00;99.90
6964;DHT22;3522;50.856;7.278;2022-12-29T01:42:43;11.10;99.90
6964;DHT22;3522;50.856;7.278;2022-12-29T01:45:12;11.10;99.90
6964;DHT22;3522;50.856;7.278;2022-12-29T01:47:39;11.10;99.90
6964;DHT22;3522;50.856;7.278;2022-12-29T01:50:08;11.00;99.90
6964;DHT22;3522;50.856;7.278;2022-12-29T01:52:36;11.10;99.90
6964;DHT22;3522;50.856;7.278;2022-12-29T01:55:04;11.20;99.90
6964;DHT22;3522;50.856;7.278;2022-12-29T01:57:33;11.20;99.90
6964;DHT22;3522;50.856;7.278;2022-12-29T02:00:01;11.30;99.90
6964;DHT22;3522;50.856;7.278;2022-12-29T02:02:30;11.30;99.90
6964;DHT22;3522;50.856;7.278;2022-12-29T02:04:57;11.30;99.90
6964;DHT22;3522;50.856;7.278;2022-12-29T02:07:25;11.40;99.90
6964;DHT22;3522;50.856;7.278;2022-12-29T02:09:52;11.40;99.90
6964;DHT22;3522;50.856;7.278;2022-12-29T02:12:20;11.40;99.90
6964;DHT22;3522;50.856;7.278;2022-12-29T02:14:47;11.40;99.90
6964;DHT22;3522;50.856;7.278;2022-12-29T02:17:16;11.50;99.90
6964;DHT22;3522;50.856;7.278;2022-12-29T02:19:53;11.30;99.90
6964;DHT22;3522;50.856;7.278;2022-12-29T02:22:23;11.40;99.90
6964;DHT22;3522;50.856;7.278;2022-12-29T02:25:08;11.30;99.90
6964;DHT22;3522;50.856;7.278;2022-12-29T02:27:43;11.20;99.90
6964;DHT22;3522;50.856;7.278;2022-12-29T02:30:27;11.20;99.90
6964;DHT22;3522;50.856;7.278;2022-12-29T02:32:56;11.30;99.90
6964;DHT22;3522;50.856;7.278;2022-12-29T02:35:27;11.30;99.90
6964;DHT22;3522;50.856;7.278;2022-12-29T02:37:58;11.40;99.90
6964;DHT22;3522;50.856;7.278;2022-12-29T02:40:29;11.40;99.90
6964;DHT22;3522;50.856;7.278;2022-12-29T02:42:59;11.40;99.90
6964;DHT22;3522;50.856;7.278;2022-12-29T02:45:30;11.30;99.90
6964;DHT22;3522;50.856;7.278;2022-12-29T02:48:00;11.30;99.90
6964;DHT22;3522;50.856;7.278;2022-12-29T02:50:31;11.40;99.90
6964;DHT22;3522;50.856;7.278;2022-12-29T02:52:59;11.30;99.90
6964;DHT22;3522;50.856;7.278;2022-12-29T02:55:26;11.30;99.90
6964;DHT22;3522;50.856;7.278;2022-12-29T02:58:05;11.40;99.90
6964;DHT22;3522;50.856;7.278;2022-12-29T03:00:34;11.30;99.90
6964;DHT22;3522;50.856;7.278;2022-12-29T03:03:13;11.30;99.90
6964;DHT22;3522;50.856;7.278;2022-12-29T03:05:55;11.30;99.90
6964;DHT22;3522;50.856;7.278;2022-12-29T03:08:27;11.30;99.90
6964;DHT22;3522;50.856;7.278;2022-12-29T03:10:56;11.40;99.90
6964;DHT22;3522;50.856;7.278;2022-12-29T03:13:26;11.30;99.90
6964;DHT22;3522;50.856;7.278;2022-12-29T03:16:14;11.40;99.90
6964;DHT22;3522;50.856;7.278;2022-12-29T03:18:46;11.40;99.90
6964;DHT22;3522;50.856;7.278;2022-12-29T03:21:14;11.30;99.90
6964;DHT22;3522;50.856;7.278;2022-12-29T03:23:43;11.30;99.90
6964;DHT22;3522;50.856;7.278;2022-12-29T03:26:12;11.30;99.90
6964;DHT22;3522;50.856;7.278;2022-12-29T03:28:42;11.40;99.90
6964;DHT22;3522;50.856;7.278;2022-12-29T03:31:10;11.40;99.90
6964;DHT22;3522;50.856;7.278;2022-12-29T03:33:39;11.40;99.90
6964;DHT22;3522;50.856;7.278;2022-12-29T03:36:09;11.50;99.90
6964;DHT22;3522;50.856;7.278;2022-12-29T03:38:39;11.50;99.90
6964;DHT22;3522;50.856;7.278;2022-12-29T03:41:07;11.40;99.90
6964;DHT22;3522;50.856;7.278;2022-12-29T03:43:35;11.40;99.90
6964;DHT22;3522;50.856;7.278;2022-12-29T03:46:02;11.50;99.90
6964;DHT22;3522;50.856;7.278;2022-12-29T03:48:28;11.50;99.90
6964;DHT22;3522;50.856;7.278;2022-12-29T03:50:56;11.50;99.90
6964;DHT22;3522;50.856;7.278;2022-12-29T03:53:23;11.50;99.90
6964;DHT22;3522;50.856;7.278;2022-12-29T03:55:49;11.50;99.90
6964;DHT22;3522;50.856;7.278;2022-12-29T03:58:16;11.50;99.90
6964;DHT22;3522;50.856;7.278;2022-12-29T04:00:43;11.50;99.90
6964;DHT22;3522;50.856;7.278;2022-12-29T04:03:09;11.50;99.90
6964;DHT22;3522;50.856;7.278;2022-12-29T04:05:36;11.50;99.90
6964;DHT22;3522;50.856;7.278;2022-12-29T04:08:04;11.50;99.90
6964;DHT22;3522;50.856;7.278;2022-12-29T04:10:30;11.40;99.90
6964;DHT22;3522;50.856;7.278;2022-12-29T04:12:57;11.40;99.90
6964;DHT22;3522;50.856;7.278;2022-12-29T04:15:23;11.40;99.90
6964;DHT22;3522;50.856;7.278;2022-12-29T04:17:51;11.40;99.90
6964;DHT22;3522;50.856;7.278;2022-12-29T04:20:18;11.30;99.90
6964;DHT22;3522;50.856;7.278;2022-12-29T04:23:03;11.30;99.90
6964;DHT22;3522;50.856;7.278;2022-12-29T04:25:30;11.20;99.90
6964;DHT22;3522;50.856;7.278;2022-12-29T04:27:57;11.20;99.90
6964;DHT22;3522;50.856;7.278;2022-12-29T04:30:23;11.30;99.90
6964;DHT22;3522;50.856;7.278;2022-12-29T04:32:50;11.40;99.90
6964;DHT22;3522;50.856;7.278;2022-12-29T04:35:17;11.30;99.90
6964;DHT22;3522;50.856;7.278;2022-12-29T04:37:43;11.40;99.90
6964;DHT22;3522;50.856;7.278;2022-12-29T04:40:11;11.40;99.90
6964;DHT22;3522;50.856;7.278;2022-12-29T04:42:38;11.40;99.90
6964;DHT22;3522;50.856;7.278;2022-12-29T04:45:05;11.40;99.90
6964;DHT22;3522;50.856;7.278;2022-12-29T04:47:32;11.40;99.90
6964;DHT22;3522;50.856;7.278;2022-12-29T04:49:58;11.40;99.90
6964;DHT22;3522;50.856;7.278;2022-12-29T04:52:25;11.30;99.90
6964;DHT22;3522;50.856;7.278;2022-12-29T04:54:51;11.30;99.90
6964;DHT22;3522;50.856;7.278;2022-12-29T04:57:19;11.30;99.90
6964;DHT22;3522;50.856;7.278;2022-12-29T04:59:46;11.40;99.90
6964;DHT22;3522;50.856;7.278;2022-12-29T05:02:12;11.40;99.90
6964;DHT22;3522;50.856;7.278;2022-12-29T05:04:39;11.30;99.90
6964;DHT22;3522;50.856;7.278;2022-12-29T05:07:05;11.20;99.90
6964;DHT22;3522;50.856;7.278;2022-12-29T05:09:32;11.20;99.90
6964;DHT22;3522;50.856;7.278;2022-12-29T05:11:58;11.20;99.90
6964;DHT22;3522;50.856;7.278;2022-12-29T05:14:26;11.10;99.90
6964;DHT22;3522;50.856;7.278;2022-12-29T05:16:53;11.10;99.90
6964;DHT22;3522;50.856;7.278;2022-12-29T05:19:19;11.20;99.90
6964;DHT22;3522;50.856;7.278;2022-12-29T05:21:46;11.10;99.90
6964;DHT22;3522;50.856;7.278;2022-12-29T05:24:13;11.10;99.90
6964;DHT22;3522;50.856;7.278;2022-12-29T05:26:40;11.10;99.90
6964;DHT22;3522;50.856;7.278;2022-12-29T05:29:07;11.10;99.90
6964;DHT22;3522;50.856;7.278;2022-12-29T05:31:34;11.10;99.90
6964;DHT22;3522;50.856;7.278;2022-12-29T05:34:01;11.10;99.90
6964;DHT22;3522;50.856;7.278;2022-12-29T05:36:28;11.10;99.90
6964;DHT22;3522;50.856;7.278;2022-12-29T05:38:54;11.10;99.90
6964;DHT22;3522;50.856;7.278;2022-12-29T05:41:21;11.20;99.90
6964;DHT22;3522;50.856;7.278;2022-12-29T05:43:47;11.10;99.90
6964;DHT22;3522;50.856;7.278;2022-12-29T05:46:14;11.10;99.90
6964;DHT22;3522;50.856;7.278;2022-12-29T05:48:42;11.10;99.90
6964;DHT22;3522;50.856;7.278;2022-12-29T05:51:08;11.10;99.90
6964;DHT22;3522;50.856;7.278;2022-12-29T05:53:35;11.00;99.90
6964;DHT22;3522;50.856;7.278;2022-12-29T05:56:01;11.00;99.90
6964;DHT22;3522;50.856;7.278;2022-12-29T05:58:28;11.10;99.90
6964;DHT22;3522;50.856;7.278;2022-12-29T06:00:55;11.10;99.90
6964;DHT22;3522;50.856;7.278;2022-12-29T06:03:21;11.10;99.90
6964;DHT22;3522;50.856;7.278;2022-12-29T06:05:49;11.10;99.90
6964;DHT22;3522;50.856;7.278;2022-12-29T06:08:16;11.10;99.90
6964;DHT22;3522;50.856;7.278;2022-12-29T06:10:42;11.10;99.90
6964;DHT22;3522;50.856;7.278;2022-12-29T06:13:09;11.00;99.90
6964;DHT22;3522;50.856;7.278;2022-12-29T06:15:36;10.90;99.90
6964;DHT22;3522;50.856;7.278;2022-12-29T06:18:03;10.70;99.90
6964;DHT22;3522;50.856;7.278;2022-12-29T06:20:29;10.70;99.90
6964;DHT22;3522;50.856;7.278;2022-12-29T06:22:58;10.60;99.90
6964;DHT22;3522;50.856;7.278;2022-12-29T06:25:25;10.50;99.90
6964;DHT22;3522;50.856;7.278;2022-12-29T06:27:52;10.40;99.90
6964;DHT22;3522;50.856;7.278;2022-12-29T06:30:18;10.40;99.90
6964;DHT22;3522;50.856;7.278;2022-12-29T06:32:45;10.40;99.90
6964;DHT22;3522;50.856;7.278;2022-12-29T06:35:12;10.40;99.90
6964;DHT22;3522;50.856;7.278;2022-12-29T06:37:38;10.40;99.90
6964;DHT22;3522;50.856;7.278;2022-12-29T06:40:07;10.40;99.90
6964;DHT22;3522;50.856;7.278;2022-12-29T06:42:33;10.30;99.90
6964;DHT22;3522;50.856;7.278;2022-12-29T06:45:00;10.40;99.90
6964;DHT22;3522;50.856;7.278;2022-12-29T06:47:27;10.40;99.90
6964;DHT22;3522;50.856;7.278;2022-12-29T06:49:53;10.40;99.90
6964;DHT22;3522;50.856;7.278;2022-12-29T06:52:20;10.30;99.90
6964;DHT22;3522;50.856;7.278;2022-12-29T06:54:49;10.30;99.90
6964;DHT22;3522;50.856;7.278;2022-12-29T06:57:17;10.40;99.90
6964;DHT22;3522;50.856;7.278;2022-12-29T06:59:43;10.30;99.90
6964;DHT22;3522;50.856;7.278;2022-12-29T07:02:10;10.30;99.90
6964;DHT22;3522;50.856;7.278;2022-12-29T07:04:37;10.30;99.90
6964;DHT22;3522;50.856;7.278;2022-12-29T07:07:03;10.30;99.90
6964;DHT22;3522;50.856;7.278;2022-12-29T07:09:30;10.30;99.90
6964;DHT22;3522;50.856;7.278;2022-12-29T07:11:57;10.30;99.90
6964;DHT22;3522;50.856;7.278;2022-12-29T07:14:25;10.40;99.90
6964;DHT22;3522;50.856;7.278;2022-12-29T07:16:52;10.40;99.90
6964;DHT22;3522;50.856;7.278;2022-12-29T07:19:18;10.40;99.90
6964;DHT22;3522;50.856;7.278;2022-12-29T07:21:45;10.40;99.90
6964;DHT22;3522;50.856;7.278;2022-12-29T07:24:12;10.30;99.90
6964;DHT22;3522;50.856;7.278;2022-12-29T07:26:38;10.30;99.90
6964;DHT22;3522;50.856;7.278;2022-12-29T07:29:05;10.30;99.90
6964;DHT22;3522;50.856;7.278;2022-12-29T07:31:33;10.30;99.90
6964;DHT22;3522;50.856;7.278;2022-12-29T07:33:59;10.40;99.90
6964;DHT22;3522;50.856;7.278;2022-12-29T07:36:26;10.40;99.90
6964;DHT22;3522;50.856;7.278;2022-12-29T07:38:53;10.40;99.90
6964;DHT22;3522;50.856;7.278;2022-12-29T07:41:19;10.40;99.90
6964;DHT22;3522;50.856;7.278;2022-12-29T07:43:46;10.40;99.90
6964;DHT22;3522;50.856;7.278;2022-12-29T07:46:12;10.40;99.90
6964;DHT22;3522;50.856;7.278;2022-12-29T07:48:40;10.40;99.90
6964;DHT22;3522;50.856;7.278;2022-12-29T07:51:07;10.50;99.90
6964;DHT22;3522;50.856;7.278;2022-12-29T07:53:35;10.40;99.90
6964;DHT22;3522;50.856;7.278;2022-12-29T07:56:01;10.40;99.90
6964;DHT22;3522;50.856;7.278;2022-12-29T07:58:28;10.50;99.90
6964;DHT22;3522;50.856;7.278;2022-12-29T08:00:54;10.50;99.90
6964;DHT22;3522;50.856;7.278;2022-12-29T08:03:21;10.50;99.90
6964;DHT22;3522;50.856;7.278;2022-12-29T08:05:49;10.50;99.90
6964;DHT22;3522;50.856;7.278;2022-12-29T08:08:15;10.50;99.90
6964;DHT22;3522;50.856;7.278;2022-12-29T08:10:42;10.50;99.90
6964;DHT22;3522;50.856;7.278;2022-12-29T08:13:09;10.50;99.90
6964;DHT22;3522;50.856;7.278;2022-12-29T08:15:36;10.60;99.90
6964;DHT22;3522;50.856;7.278;2022-12-29T08:18:03;10.60;99.90
6964;DHT22;3522;50.856;7.278;2022-12-29T08:20:30;10.50;99.90
6964;DHT22;3522;50.856;7.278;2022-12-29T08:22:58;10.50;99.90
6964;DHT22;3522;50.856;7.278;2022-12-29T08:25:24;10.50;99.90
6964;DHT22;3522;50.856;7.278;2022-12-29T08:27:51;10.50;99.90
6964;DHT22;3522;50.856;7.278;2022-12-29T08:30:18;10.50;99.90
6964;DHT22;3522;50.856;7.278;2022-12-29T08:32:44;10.50;99.90
6964;DHT22;3522;50.856;7.278;2022-12-29T08:35:11;10.50;99.90
6964;DHT22;3522;50.856;7.278;2022-12-29T08:37:38;10.50;99.90
6964;DHT22;3522;50.856;7.278;2022-12-29T08:40:06;10.50;99.90
6964;DHT22;3522;50.856;7.278;2022-12-29T08:42:33;10.50;99.90
6964;DHT22;3522;50.856;7.278;2022-12-29T08:45:00;10.50;99.90
6964;DHT22;3522;50.856;7.278;2022-12-29T08:47:26;10.50;99.90
6964;DHT22;3522;50.856;7.278;2022-12-29T08:49:53;10.50;99.90
6964;DHT22;3522;50.856;7.278;2022-12-29T08:52:19;10.50;99.90
6964;DHT22;3522;50.856;7.278;2022-12-29T08:54:46;10.50;99.90
6964;DHT22;3522;50.856;7.278;2022-12-29T08:57:14;10.50;99.90
6964;DHT22;3522;50.856;7.278;2022-12-29T08:59:41;10.50;99.90
6964;DHT22;3522;50.856;7.278;2022-12-29T09:02:09;10.50;99.90
6964;DHT22;3522;50.856;7.278;2022-12-29T09:04:36;10.50;99.90
6964;DHT22;3522;50.856;7.278;2022-12-29T09:07:03;10.50;99.90
6964;DHT22;3522;50.856;7.278;2022-12-29T09:09:30;10.50;99.90
6964;DHT22;3522;50.856;7.278;2022-12-29T09:11:57;10.50;99.90
6964;DHT22;3522;50.856;7.278;2022-12-29T09:14:25;10.50;99.90
6964;DHT22;3522;50.856;7.278;2022-12-29T09:16:52;10.50;99.90
6964;DHT22;3522;50.856;7.278;2022-12-29T09:19:36;10.40;99.90
6964;DHT22;3522;50.856;7.278;2022-12-29T09:22:03;10.40;99.90
6964;DHT22;3522;50.856;7.278;2022-12-29T09:24:29;10.40;99.90
6964;DHT22;3522;50.856;7.278;2022-12-29T09:26:56;10.40;99.90
6964;DHT22;3522;50.856;7.278;2022-12-29T09:29:22;10.40;99.90
6964;DHT22;3522;50.856;7.278;2022-12-29T09:31:50;10.40;99.90
6964;DHT22;3522;50.856;7.278;2022-12-29T09:34:17;10.30;99.90
6964;DHT22;3522;50.856;7.278;2022-12-29T09:36:43;10.30;99.90
6964;DHT22;3522;50.856;7.278;2022-12-29T09:39:10;10.40;99.90
6964;DHT22;3522;50.856;7.278;2022-12-29T09:41:38;10.40;99.90
6964;DHT22;3522;50.856;7.278;2022-12-29T09:44:07;10.40;99.90
6964;DHT22;3522;50.856;7.278;2022-12-29T09:46:35;10.40;99.90
6964;DHT22;3522;50.856;7.278;2022-12-29T09:49:08;10.40;99.90
6964;DHT22;3522;50.856;7.278;2022-12-29T09:51:39;10.60;99.90
6964;DHT22;3522;50.856;7.278;2022-12-29T09:54:14;10.60;99.90
6964;DHT22;3522;50.856;7.278;2022-12-29T09:56:45;10.60;99.90
6964;DHT22;3522;50.856;7.278;2022-12-29T09:59:14;10.60;99.90
6964;DHT22;3522;50.856;7.278;2022-12-29T10:01:42;10.60;99.90
6964;DHT22;3522;50.856;7.278;2022-12-29T10:04:11;10.70;99.90
6964;DHT22;3522;50.856;7.278;2022-12-29T10:06:39;10.70;99.90
6964;DHT22;3522;50.856;7.278;2022-12-29T10:09:11;10.60;99.90
6964;DHT22;3522;50.856;7.278;2022-12-29T10:11:46;10.60;99.90
6964;DHT22;3522;50.856;7.278;2022-12-29T10:14:19;10.60;99.90
6964;DHT22;3522;50.856;7.278;2022-12-29T10:16:49;10.70;99.90
6964;DHT22;3522;50.856;7.278;2022-12-29T10:19:24;10.70;99.90
6964;DHT22;3522;50.856;7.278;2022-12-29T10:21:58;10.70;99.90
6964;DHT22;3522;50.856;7.278;2022-12-29T10:24:26;10.70;99.90
6964;DHT22;3522;50.856;7.278;2022-12-29T10:26:53;10.70;99.90
6964;DHT22;3522;50.856;7.278;2022-12-29T10:29:23;10.70;99.90
6964;DHT22;3522;50.856;7.278;2022-12-29T10:31:54;10.70;99.90
6964;DHT22;3522;50.856;7.278;2022-12-29T10:34:21;10.70;99.90
6964;DHT22;3522;50.856;7.278;2022-12-29T10:36:50;10.80;99.90
6964;DHT22;3522;50.856;7.278;2022-12-29T10:39:21;10.70;99.90
6964;DHT22;3522;50.856;7.278;2022-12-29T10:41:50;10.80;99.90
6964;DHT22;3522;50.856;7.278;2022-12-29T10:44:17;10.80;99.90
6964;DHT22;3522;50.856;7.278;2022-12-29T10:46:45;10.80;99.90
6964;DHT22;3522;50.856;7.278;2022-12-29T10:49:14;10.80;99.90
6964;DHT22;3522;50.856;7.278;2022-12-29T10:51:42;10.80;99.90
6964;DHT22;3522;50.856;7.278;2022-12-29T10:54:13;10.80;99.90
6964;DHT22;3522;50.856;7.278;2022-12-29T10:56:42;10.80;99.90
6964;DHT22;3522;50.856;7.278;2022-12-29T10:59:11;10.80;99.90
6964;DHT22;3522;50.856;7.278;2022-12-29T11:01:43;10.80;99.90
6964;DHT22;3522;50.856;7.278;2022-12-29T11:04:20;10.80;99.90
6964;DHT22;3522;50.856;7.278;2022-12-29T11:06:50;10.80;99.90
6964;DHT22;3522;50.856;7.278;2022-12-29T11:09:20;10.80;99.90
6964;DHT22;3522;50.856;7.278;2022-12-29T11:11:48;10.90;99.90
6964;DHT22;3522;50.856;7.278;2022-12-29T11:14:17;10.90;99.90
6964;DHT22;3522;50.856;7.278;2022-12-29T11:16:44;11.00;99.90
6964;DHT22;3522;50.856;7.278;2022-12-29T11:19:22;10.90;99.90
6964;DHT22;3522;50.856;7.278;2022-12-29T11:21:49;11.00;99.90
6964;DHT22;3522;50.856;7.278;2022-12-29T11:24:22;11.00;99.90
6964;DHT22;3522;50.856;7.278;2022-12-29T11:26:52;11.00;99.90
6964;DHT22;3522;50.856;7.278;2022-12-29T11:29:23;11.00;99.90
6964;DHT22;3522;50.856;7.278;2022-12-29T11:31:50;11.10;99.90
6964;DHT22;3522;50.856;7.278;2022-12-29T11:34:18;11.10;99.90
6964;DHT22;3522;50.856;7.278;2022-12-29T11:36:45;11.10;99.90
6964;DHT22;3522;50.856;7.278;2022-12-29T11:39:23;11.10;99.90
6964;DHT22;3522;50.856;7.278;2022-12-29T11:41:52;11.20;99.90
6964;DHT22;3522;50.856;7.278;2022-12-29T11:44:19;11.20;99.90
6964;DHT22;3522;50.856;7.278;2022-12-29T11:46:46;11.20;99.90
6964;DHT22;3522;50.856;7.278;2022-12-29T11:49:18;11.30;99.90
6964;DHT22;3522;50.856;7.278;2022-12-29T11:51:46;11.20;99.90
6964;DHT22;3522;50.856;7.278;2022-12-29T11:54:16;11.20;99.90
6964;DHT22;3522;50.856;7.278;2022-12-29T11:56:46;11.20;99.90
6964;DHT22;3522;50.856;7.278;2022-12-29T12:02:00;11.20;99.90
6964;DHT22;3522;50.856;7.278;2022-12-29T12:04:30;11.20;99.90
6964;DHT22;3522;50.856;7.278;2022-12-29T12:07:02;11.20;99.90
6964;DHT22;3522;50.856;7.278;2022-12-29T12:09:31;11.20;99.90
6964;DHT22;3522;50.856;7.278;2022-12-29T12:12:00;11.10;99.90
6964;DHT22;3522;50.856;7.278;2022-12-29T12:14:31;11.00;99.90
6964;DHT22;3522;50.856;7.278;2022-12-29T12:17:02;11.10;99.90
6964;DHT22;3522;50.856;7.278;2022-12-29T12:19:31;11.10;99.90
6964;DHT22;3522;50.856;7.278;2022-12-29T12:22:00;11.20;99.90
6964;DHT22;3522;50.856;7.278;2022-12-29T12:24:33;11.20;99.90
6964;DHT22;3522;50.856;7.278;2022-12-29T12:27:04;11.10;99.90
6964;DHT22;3522;50.856;7.278;2022-12-29T12:29:36;11.10;99.90
6964;DHT22;3522;50.856;7.278;2022-12-29T12:32:05;11.10;99.90
6964;DHT22;3522;50.856;7.278;2022-12-29T12:34:36;11.10;99.90
6964;DHT22;3522;50.856;7.278;2022-12-29T12:37:07;11.10;99.90
6964;DHT22;3522;50.856;7.278;2022-12-29T12:39:40;11.00;99.90
6964;DHT22;3522;50.856;7.278;2022-12-29T12:42:16;11.00;99.90
6964;DHT22;3522;50.856;7.278;2022-12-29T12:44:46;10.90;99.90
6964;DHT22;3522;50.856;7.278;2022-12-29T12:47:24;10.90;99.90
6964;DHT22;3522;50.856;7.278;2022-12-29T12:50:06;10.90;99.90
6964;DHT22;3522;50.856;7.278;2022-12-29T12:52:38;10.90;99.90
6964;DHT22;3522;50.856;7.278;2022-12-29T12:55:15;10.90;99.90
6964;DHT22;3522;50.856;7.278;2022-12-29T12:57:53;10.90;99.90
6964;DHT22;3522;50.856;7.278;2022-12-29T13:00:22;10.90;99.90
6964;DHT22;3522;50.856;7.278;2022-12-29T13:02:53;10.90;99.90
6964;DHT22;3522;50.856;7.278;2022-12-29T13:05:29;10.90;99.90
6964;DHT22;3522;50.856;7.278;2022-12-29T13:08:00;10.90;99.90
6964;DHT22;3522;50.856;7.278;2022-12-29T13:10:35;10.90;99.90
6964;DHT22;3522;50.856;7.278;2022-12-29T13:13:12;10.90;99.90
6964;DHT22;3522;50.856;7.278;2022-12-29T13:15:43;10.90;99.90
6964;DHT22;3522;50.856;7.278;2022-12-29T13:18:14;10.90;99.90
6964;DHT22;3522;50.856;7.278;2022-12-29T13:20:50;10.90;99.90
6964;DHT22;3522;50.856;7.278;2022-12-29T13:23:30;10.90;99.90
6964;DHT22;3522;50.856;7.278;2022-12-29T13:26:03;10.90;99.90
6964;DHT22;3522;50.856;7.278;2022-12-29T13:28:37;10.90;99.90
6964;DHT22;3522;50.856;7.278;2022-12-29T13:31:09;10.90;99.90
6964;DHT22;3522;50.856;7.278;2022-12-29T13:33:40;10.90;99.90
6964;DHT22;3522;50.856;7.278;2022-12-29T13:36:24;10.90;99.90
6964;DHT22;3522;50.856;7.278;2022-12-29T13:38:54;10.80;99.90
6964;DHT22;3522;50.856;7.278;2022-12-29T13:41:30;10.90;99.90
6964;DHT22;3522;50.856;7.278;2022-12-29T13:44:00;10.80;99.90
6964;DHT22;3522;50.856;7.278;2022-12-29T13:46:28;10.80;99.90
6964;DHT22;3522;50.856;7.278;2022-12-29T13:48:57;10.80;99.90
6964;DHT22;3522;50.856;7.278;2022-12-29T13:51:24;10.80;99.90
6964;DHT22;3522;50.856;7.278;2022-12-29T13:53:55;10.80;99.90
6964;DHT22;3522;50.856;7.278;2022-12-29T13:56:25;10.80;99.90
6964;DHT22;3522;50.856;7.278;2022-12-29T13:58:57;10.70;99.90
6964;DHT22;3522;50.856;7.278;2022-12-29T14:01:28;10.70;99.90
6964;DHT22;3522;50.856;7.278;2022-12-29T14:03:57;10.70;99.90
6964;DHT22;3522;50.856;7.278;2022-12-29T14:06:25;10.60;99.90
6964;DHT22;3522;50.856;7.278;2022-12-29T14:08:58;10.60;99.90
6964;DHT22;3522;50.856;7.278;2022-12-29T14:11:29;10.70;99.90
6964;DHT22;3522;50.856;7.278;2022-12-29T14:13:56;10.70;99.90
6964;DHT22;3522;50.856;7.278;2022-12-29T14:16:29;10.70;99.90
6964;DHT22;3522;50.856;7.278;2022-12-29T14:18:56;10.70;99.90
6964;DHT22;3522;50.856;7.278;2022-12-29T14:21:29;10.60;99.90
6964;DHT22;3522;50.856;7.278;2022-12-29T14:24:02;10.60;99.90
6964;DHT22;3522;50.856;7.278;2022-12-29T14:26:47;10.60;99.90
6964;DHT22;3522;50.856;7.278;2022-12-29T14:32:07;10.60;99.90
6964;DHT22;3522;50.856;7.278;2022-12-29T14:34:50;10.70;99.90
6964;DHT22;3522;50.856;7.278;2022-12-29T14:37:23;10.70;99.90
6964;DHT22;3522;50.856;7.278;2022-12-29T14:40:02;10.70;99.90
6964;DHT22;3522;50.856;7.278;2022-12-29T14:42:29;10.70;99.90
6964;DHT22;3522;50.856;7.278;2022-12-29T14:44:58;10.60;99.90
6964;DHT22;3522;50.856;7.278;2022-12-29T14:47:31;10.50;99.90
6964;DHT22;3522;50.856;7.278;2022-12-29T14:50:03;10.40;99.90
6964;DHT22;3522;50.856;7.278;2022-12-29T14:52:30;10.30;99.90
6964;DHT22;3522;50.856;7.278;2022-12-29T14:54:57;10.20;99.90
6964;DHT22;3522;50.856;7.278;2022-12-29T14:57:27;10.10;99.90
6964;DHT22;3522;50.856;7.278;2022-12-29T14:59:56;9.90;99.90
6964;DHT22;3522;50.856;7.278;2022-12-29T15:02:24;9.70;99.90
6964;DHT22;3522;50.856;7.278;2022-12-29T15:04:54;9.80;99.90
6964;DHT22;3522;50.856;7.278;2022-12-29T15:07:24;9.70;99.90
6964;DHT22;3522;50.856;7.278;2022-12-29T15:09:53;9.60;99.90
6964;DHT22;3522;50.856;7.278;2022-12-29T15:12:22;9.50;99.90
6964;DHT22;3522;50.856;7.278;2022-12-29T15:14:55;9.50;99.90
6964;DHT22;3522;50.856;7.278;2022-12-29T15:17:23;9.40;99.90
6964;DHT22;3522;50.856;7.278;2022-12-29T15:19:54;9.40;99.90
6964;DHT22;3522;50.856;7.278;2022-12-29T15:22:20;9.30;99.90
6964;DHT22;3522;50.856;7.278;2022-12-29T15:24:49;9.30;99.90
6964;DHT22;3522;50.856;7.278;2022-12-29T15:27:17;9.30;99.90
6964;DHT22;3522;50.856;7.278;2022-12-29T15:29:45;9.30;99.90
6964;DHT22;3522;50.856;7.278;2022-12-29T15:32:16;9.30;99.90
6964;DHT22;3522;50.856;7.278;2022-12-29T15:34:43;9.30;99.90
6964;DHT22;3522;50.856;7.278;2022-12-29T15:37:16;9.30;99.90
6964;DHT22;3522;50.856;7.278;2022-12-29T15:39:42;9.30;99.90
6964;DHT22;3522;50.856;7.278;2022-12-29T15:42:10;9.30;99.90
6964;DHT22;3522;50.856;7.278;2022-12-29T15:44:43;9.30;99.90
6964;DHT22;3522;50.856;7.278;2022-12-29T15:47:12;9.20;99.90
6964;DHT22;3522;50.856;7.278;2022-12-29T15:49:41;9.20;99.90
6964;DHT22;3522;50.856;7.278;2022-12-29T15:52:08;9.20;99.90
6964;DHT22;3522;50.856;7.278;2022-12-29T15:54:36;9.10;99.90
6964;DHT22;3522;50.856;7.278;2022-12-29T15:57:03;9.10;99.90
6964;DHT22;3522;50.856;7.278;2022-12-29T15:59:30;9.00;99.90
6964;DHT22;3522;50.856;7.278;2022-12-29T16:01:57;9.00;99.90
6964;DHT22;3522;50.856;7.278;2022-12-29T16:04:25;8.90;99.90
6964;DHT22;3522;50.856;7.278;2022-12-29T16:06:55;8.90;99.90
6964;DHT22;3522;50.856;7.278;2022-12-29T16:09:29;8.90;99.90
6964;DHT22;3522;50.856;7.278;2022-12-29T16:11:58;8.90;99.90
6964;DHT22;3522;50.856;7.278;2022-12-29T16:14:27;8.80;99.90
6964;DHT22;3522;50.856;7.278;2022-12-29T16:16:56;8.80;99.90
6964;DHT22;3522;50.856;7.278;2022-12-29T16:19:25;8.80;99.90
6964;DHT22;3522;50.856;7.278;2022-12-29T16:21:54;8.80;99.90